sensor_id;sensor_type;location;lat;lon;timestamp;P1;durP1;ratioP1;P2;durP2;ratioP2
33266;SDS011;19638;49.080;11.896;2023-03-14T00:01:26;2.55;;;1.33;;
33266;SDS011;19638;49.080;11.896;2023-03-14T00:05:31;2.33;;;1.48;;
33266;SDS011;19638;49.080;11.896;2023-03-14T00:09:37;1.60;;;1.50;;
33266;SDS011;19638;49.080;11.896;2023-03-14T00:13:46;2.60;;;1.40;;
33266;SDS011;19638;49.080;11.896;2023-03-14T00:17:53;1.13;;;1.13;;
33266;SDS011;19638;49.080;11.896;2023-03-14T00:21:56;3.83;;;1.80;;
33266;SDS011;19638;49.080;11.896;2023-03-14T00:26:00;1.10;;;1.10;;
33266;SDS011;19638;49.080;11.896;2023-03-14T00:30:08;2.47;;;1.10;;
33266;SDS011;19638;49.080;11.896;2023-03-14T00:34:14;1.20;;;1.20;;
33266;SDS011;19638;49.080;11.896;2023-03-14T00:38:20;3.55;;;1.90;;
33266;SDS011;19638;49.080;11.896;2023-03-14T00:42:30;3.58;;;1.83;;
33266;SDS011;19638;49.080;11.896;2023-03-14T00:46:36;1.48;;;1.38;;
33266;SDS011;19638;49.080;11.896;2023-03-14T00:50:41;1.38;;;1.27;;
33266;SDS011;19638;49.080;11.896;2023-03-14T00:54:44;2.80;;;1.20;;
33266;SDS011;19638;49.080;11.896;2023-03-14T00:58:48;1.85;;;1.00;;
33266;SDS011;19638;49.080;11.896;2023-03-14T01:02:51;2.72;;;1.08;;
33266;SDS011;19638;49.080;11.896;2023-03-14T01:06:55;0.95;;;0.95;;
33266;SDS011;19638;49.080;11.896;2023-03-14T01:10:59;0.85;;;0.82;;
33266;SDS011;19638;49.080;11.896;2023-03-14T01:15:08;0.82;;;0.80;;
33266;SDS011;19638;49.080;11.896;2023-03-14T01:19:12;0.88;;;0.85;;
33266;SDS011;19638;49.080;11.896;2023-03-14T01:23:16;0.70;;;0.70;;
33266;SDS011;19638;49.080;11.896;2023-03-14T01:27:21;0.65;;;0.65;;
33266;SDS011;19638;49.080;11.896;2023-03-14T01:31:28;0.70;;;0.70;;
33266;SDS011;19638;49.080;11.896;2023-03-14T01:35:32;0.70;;;0.70;;
33266;SDS011;19638;49.080;11.896;2023-03-14T01:39:41;0.68;;;0.68;;
33266;SDS011;19638;49.080;11.896;2023-03-14T01:43:44;0.60;;;0.60;;
33266;SDS011;19638;49.080;11.896;2023-03-14T01:47:51;0.70;;;0.70;;
33266;SDS011;19638;49.080;11.896;2023-03-14T01:51:55;0.75;;;0.75;;
33266;SDS011;19638;49.080;11.896;2023-03-14T01:56:04;0.60;;;0.60;;
33266;SDS011;19638;49.080;11.896;2023-03-14T02:00:10;0.73;;;0.73;;
33266;SDS011;19638;49.080;11.896;2023-03-14T02:04:17;0.70;;;0.70;;
33266;SDS011;19638;49.080;11.896;2023-03-14T02:08:27;0.70;;;0.70;;
33266;SDS011;19638;49.080;11.896;2023-03-14T02:12:30;0.68;;;0.68;;
33266;SDS011;19638;49.080;11.896;2023-03-14T02:16:37;0.70;;;0.70;;
33266;SDS011;19638;49.080;11.896;2023-03-14T02:20:45;1.08;;;0.80;;
33266;SDS011;19638;49.080;11.896;2023-03-14T02:24:57;0.80;;;0.80;;
33266;SDS011;19638;49.080;11.896;2023-03-14T02:29:13;0.70;;;0.70;;
33266;SDS011;19638;49.080;11.896;2023-03-14T02:33:18;0.65;;;0.65;;
33266;SDS011;19638;49.080;11.896;2023-03-14T02:37:23;0.60;;;0.60;;
33266;SDS011;19638;49.080;11.896;2023-03-14T02:41:34;0.70;;;0.70;;
33266;SDS011;19638;49.080;11.896;2023-03-14T02:45:42;0.60;;;0.60;;
33266;SDS011;19638;49.080;11.896;2023-03-14T02:49:46;0.60;;;0.60;;
33266;SDS011;19638;49.080;11.896;2023-03-14T02:53:49;0.57;;;0.57;;
33266;SDS011;19638;49.080;11.896;2023-03-14T02:57:53;0.60;;;0.60;;
33266;SDS011;19638;49.080;11.896;2023-03-14T03:01:57;0.60;;;0.60;;
33266;SDS011;19638;49.080;11.896;2023-03-14T03:06:02;0.63;;;0.63;;
33266;SDS011;19638;49.080;11.896;2023-03-14T03:10:06;0.70;;;0.70;;
33266;SDS011;19638;49.080;11.896;2023-03-14T03:14:12;0.55;;;0.55;;
33266;SDS011;19638;49.080;11.896;2023-03-14T03:18:21;0.63;;;0.63;;
33266;SDS011;19638;49.080;11.896;2023-03-14T03:22:33;0.70;;;0.70;;
33266;SDS011;19638;49.080;11.896;2023-03-14T03:26:37;0.70;;;0.70;;
33266;SDS011;19638;49.080;11.896;2023-03-14T03:30:40;0.73;;;0.73;;
33266;SDS011;19638;49.080;11.896;2023-03-14T03:34:45;0.98;;;0.98;;
33266;SDS011;19638;49.080;11.896;2023-03-14T03:38:51;1.00;;;0.88;;
33266;SDS011;19638;49.080;11.896;2023-03-14T03:42:54;0.90;;;0.90;;
33266;SDS011;19638;49.080;11.896;2023-03-14T03:47:00;1.02;;;0.98;;
33266;SDS011;19638;49.080;11.896;2023-03-14T03:51:12;0.90;;;0.90;;
33266;SDS011;19638;49.080;11.896;2023-03-14T03:55:16;3.33;;;0.97;;
33266;SDS011;19638;49.080;11.896;2023-03-14T03:59:19;1.10;;;1.10;;
33266;SDS011;19638;49.080;11.896;2023-03-14T04:03:28;0.90;;;0.90;;
33266;SDS011;19638;49.080;11.896;2023-03-14T04:07:37;1.10;;;1.00;;
33266;SDS011;19638;49.080;11.896;2023-03-14T04:11:42;0.90;;;0.90;;
33266;SDS011;19638;49.080;11.896;2023-03-14T04:15:45;0.80;;;0.80;;
33266;SDS011;19638;49.080;11.896;2023-03-14T04:19:48;0.80;;;0.80;;
33266;SDS011;19638;49.080;11.896;2023-03-14T04:23:56;1.00;;;0.82;;
33266;SDS011;19638;49.080;11.896;2023-03-14T04:28:05;1.02;;;1.02;;
33266;SDS011;19638;49.080;11.896;2023-03-14T04:32:08;0.90;;;0.90;;
33266;SDS011;19638;49.080;11.896;2023-03-14T04:36:12;1.13;;;1.13;;
33266;SDS011;19638;49.080;11.896;2023-03-14T04:40:24;1.60;;;1.17;;
33266;SDS011;19638;49.080;11.896;2023-03-14T04:44:30;1.95;;;1.20;;
33266;SDS011;19638;49.080;11.896;2023-03-14T04:48:33;1.30;;;1.20;;
33266;SDS011;19638;49.080;11.896;2023-03-14T04:52:37;3.15;;;1.15;;
33266;SDS011;19638;49.080;11.896;2023-03-14T04:56:42;2.33;;;1.30;;
33266;SDS011;19638;49.080;11.896;2023-03-14T05:00:48;1.88;;;0.98;;
33266;SDS011;19638;49.080;11.896;2023-03-14T05:04:54;1.00;;;1.00;;
33266;SDS011;19638;49.080;11.896;2023-03-14T05:08:57;2.33;;;1.05;;
33266;SDS011;19638;49.080;11.896;2023-03-14T05:13:04;3.20;;;1.00;;
33266;SDS011;19638;49.080;11.896;2023-03-14T05:17:07;1.10;;;1.10;;
33266;SDS011;19638;49.080;11.896;2023-03-14T05:21:11;1.30;;;1.20;;
33266;SDS011;19638;49.080;11.896;2023-03-14T05:25:15;2.63;;;1.00;;
33266;SDS011;19638;49.080;11.896;2023-03-14T05:29:22;0.90;;;0.90;;
33266;SDS011;19638;49.080;11.896;2023-03-14T05:33:29;1.83;;;1.40;;
33266;SDS011;19638;49.080;11.896;2023-03-14T05:37:35;2.35;;;1.70;;
33266;SDS011;19638;49.080;11.896;2023-03-14T05:41:40;1.52;;;1.42;;
33266;SDS011;19638;49.080;11.896;2023-03-14T05:45:45;1.85;;;1.50;;
33266;SDS011;19638;49.080;11.896;2023-03-14T05:49:48;3.73;;;2.40;;
33266;SDS011;19638;49.080;11.896;2023-03-14T05:53:54;3.88;;;2.10;;
33266;SDS011;19638;49.080;11.896;2023-03-14T05:57:58;2.53;;;1.95;;
33266;SDS011;19638;49.080;11.896;2023-03-14T06:02:02;2.33;;;2.08;;
33266;SDS011;19638;49.080;11.896;2023-03-14T06:06:08;1.80;;;1.50;;
33266;SDS011;19638;49.080;11.896;2023-03-14T06:10:11;2.15;;;1.85;;
33266;SDS011;19638;49.080;11.896;2023-03-14T06:14:15;1.73;;;1.60;;
33266;SDS011;19638;49.080;11.896;2023-03-14T06:18:22;1.98;;;1.83;;
33266;SDS011;19638;49.080;11.896;2023-03-14T06:22:25;1.80;;;1.70;;
33266;SDS011;19638;49.080;11.896;2023-03-14T06:26:33;1.60;;;1.50;;
33266;SDS011;19638;49.080;11.896;2023-03-14T06:30:36;1.50;;;1.40;;
33266;SDS011;19638;49.080;11.896;2023-03-14T06:34:43;1.75;;;1.48;;
33266;SDS011;19638;49.080;11.896;2023-03-14T06:38:46;1.75;;;1.42;;
33266;SDS011;19638;49.080;11.896;2023-03-14T06:42:51;5.63;;;1.38;;
33266;SDS011;19638;49.080;11.896;2023-03-14T06:46:58;1.10;;;1.10;;
33266;SDS011;19638;49.080;11.896;2023-03-14T06:51:06;1.08;;;1.08;;
33266;SDS011;19638;49.080;11.896;2023-03-14T06:55:13;3.92;;;1.48;;
33266;SDS011;19638;49.080;11.896;2023-03-14T06:59:22;1.20;;;1.10;;
33266;SDS011;19638;49.080;11.896;2023-03-14T07:03:25;2.08;;;1.38;;
33266;SDS011;19638;49.080;11.896;2023-03-14T07:07:30;1.83;;;1.40;;
33266;SDS011;19638;49.080;11.896;2023-03-14T07:11:34;1.58;;;1.45;;
33266;SDS011;19638;49.080;11.896;2023-03-14T07:15:43;1.10;;;1.10;;
33266;SDS011;19638;49.080;11.896;2023-03-14T07:19:57;1.65;;;1.05;;
33266;SDS011;19638;49.080;11.896;2023-03-14T07:24:02;4.10;;;1.20;;
33266;SDS011;19638;49.080;11.896;2023-03-14T07:28:06;2.22;;;1.38;;
33266;SDS011;19638;49.080;11.896;2023-03-14T07:32:09;2.17;;;1.10;;
33266;SDS011;19638;49.080;11.896;2023-03-14T07:36:16;2.03;;;1.40;;
33266;SDS011;19638;49.080;11.896;2023-03-14T07:40:20;1.20;;;1.00;;
33266;SDS011;19638;49.080;11.896;2023-03-14T07:44:26;1.00;;;1.00;;
33266;SDS011;19638;49.080;11.896;2023-03-14T07:48:29;1.08;;;1.08;;
33266;SDS011;19638;49.080;11.896;2023-03-14T07:52:32;2.15;;;1.10;;
33266;SDS011;19638;49.080;11.896;2023-03-14T07:56:40;1.08;;;1.08;;
33266;SDS011;19638;49.080;11.896;2023-03-14T08:00:44;3.63;;;1.05;;
33266;SDS011;19638;49.080;11.896;2023-03-14T08:04:47;1.17;;;1.00;;
33266;SDS011;19638;49.080;11.896;2023-03-14T08:08:54;2.42;;;1.10;;
33266;SDS011;19638;49.080;11.896;2023-03-14T08:13:00;1.17;;;1.10;;
33266;SDS011;19638;49.080;11.896;2023-03-14T08:17:03;1.05;;;1.05;;
33266;SDS011;19638;49.080;11.896;2023-03-14T08:21:09;1.65;;;1.00;;
33266;SDS011;19638;49.080;11.896;2023-03-14T08:25:13;2.17;;;1.00;;
33266;SDS011;19638;49.080;11.896;2023-03-14T08:29:19;1.00;;;1.00;;
33266;SDS011;19638;49.080;11.896;2023-03-14T08:33:23;3.83;;;1.20;;
33266;SDS011;19638;49.080;11.896;2023-03-14T08:37:30;1.98;;;1.15;;
33266;SDS011;19638;49.080;11.896;2023-03-14T08:41:36;2.88;;;1.50;;
33266;SDS011;19638;49.080;11.896;2023-03-14T08:45:43;2.33;;;1.70;;
33266;SDS011;19638;49.080;11.896;2023-03-14T08:49:51;3.08;;;1.23;;
33266;SDS011;19638;49.080;11.896;2023-03-14T08:53:54;2.22;;;1.42;;
33266;SDS011;19638;49.080;11.896;2023-03-14T08:57:58;2.33;;;1.33;;
33266;SDS011;19638;49.080;11.896;2023-03-14T09:02:02;1.85;;;1.10;;
33266;SDS011;19638;49.080;11.896;2023-03-14T09:06:09;1.65;;;1.20;;
33266;SDS011;19638;49.080;11.896;2023-03-14T09:10:14;1.25;;;1.15;;
33266;SDS011;19638;49.080;11.896;2023-03-14T09:14:21;1.30;;;1.20;;
33266;SDS011;19638;49.080;11.896;2023-03-14T09:18:27;2.85;;;0.98;;
33266;SDS011;19638;49.080;11.896;2023-03-14T09:22:33;0.90;;;0.90;;
33266;SDS011;19638;49.080;11.896;2023-03-14T09:26:37;0.95;;;0.95;;
33266;SDS011;19638;49.080;11.896;2023-03-14T09:30:40;1.08;;;1.08;;
33266;SDS011;19638;49.080;11.896;2023-03-14T09:34:47;2.83;;;1.40;;
33266;SDS011;19638;49.080;11.896;2023-03-14T09:38:50;1.38;;;1.10;;
33266;SDS011;19638;49.080;11.896;2023-03-14T09:42:53;1.00;;;0.90;;
33266;SDS011;19638;49.080;11.896;2023-03-14T09:47:01;1.52;;;1.00;;
33266;SDS011;19638;49.080;11.896;2023-03-14T09:51:14;2.05;;;0.93;;
33266;SDS011;19638;49.080;11.896;2023-03-14T09:55:23;0.82;;;0.82;;
33266;SDS011;19638;49.080;11.896;2023-03-14T09:59:26;2.63;;;1.10;;
33266;SDS011;19638;49.080;11.896;2023-03-14T10:03:34;0.80;;;0.80;;
33266;SDS011;19638;49.080;11.896;2023-03-14T10:07:43;0.90;;;0.90;;
33266;SDS011;19638;49.080;11.896;2023-03-14T10:11:48;1.27;;;1.10;;
33266;SDS011;19638;49.080;11.896;2023-03-14T10:15:51;1.65;;;0.80;;
33266;SDS011;19638;49.080;11.896;2023-03-14T10:19:57;2.20;;;1.08;;
33266;SDS011;19638;49.080;11.896;2023-03-14T10:24:09;0.90;;;0.90;;
33266;SDS011;19638;49.080;11.896;2023-03-14T10:28:23;0.90;;;0.90;;
33266;SDS011;19638;49.080;11.896;2023-03-14T10:32:32;0.90;;;0.90;;
33266;SDS011;19638;49.080;11.896;2023-03-14T10:36:36;1.10;;;1.10;;
33266;SDS011;19638;49.080;11.896;2023-03-14T10:40:47;0.95;;;0.95;;
33266;SDS011;19638;49.080;11.896;2023-03-14T10:44:55;0.82;;;0.82;;
33266;SDS011;19638;49.080;11.896;2023-03-14T10:49:03;1.00;;;1.00;;
33266;SDS011;19638;49.080;11.896;2023-03-14T10:53:08;0.82;;;0.80;;
33266;SDS011;19638;49.080;11.896;2023-03-14T10:57:18;4.40;;;1.02;;
33266;SDS011;19638;49.080;11.896;2023-03-14T11:01:26;1.40;;;1.10;;
33266;SDS011;19638;49.080;11.896;2023-03-14T11:05:34;1.02;;;0.90;;
33266;SDS011;19638;49.080;11.896;2023-03-14T11:09:45;0.80;;;0.80;;
33266;SDS011;19638;49.080;11.896;2023-03-14T11:14:00;1.00;;;1.00;;
33266;SDS011;19638;49.080;11.896;2023-03-14T11:18:18;1.10;;;1.05;;
33266;SDS011;19638;49.080;11.896;2023-03-14T11:22:56;0.88;;;0.88;;
33266;SDS011;19638;49.080;11.896;2023-03-14T11:27:06;0.90;;;0.90;;
33266;SDS011;19638;49.080;11.896;2023-03-14T11:31:18;2.00;;;0.95;;
33266;SDS011;19638;49.080;11.896;2023-03-14T11:35:26;1.00;;;1.00;;
33266;SDS011;19638;49.080;11.896;2023-03-14T11:39:35;0.80;;;0.80;;
33266;SDS011;19638;49.080;11.896;2023-03-14T11:43:51;0.90;;;0.90;;
33266;SDS011;19638;49.080;11.896;2023-03-14T11:48:04;1.00;;;1.00;;
33266;SDS011;19638;49.080;11.896;2023-03-14T11:52:20;1.65;;;1.05;;
33266;SDS011;19638;49.080;11.896;2023-03-14T11:56:31;0.90;;;0.90;;
33266;SDS011;19638;49.080;11.896;2023-03-14T12:00:37;1.00;;;1.00;;
33266;SDS011;19638;49.080;11.896;2023-03-14T12:04:54;0.90;;;0.90;;
33266;SDS011;19638;49.080;11.896;2023-03-14T12:09:23;1.10;;;1.10;;
33266;SDS011;19638;49.080;11.896;2023-03-14T12:13:28;1.20;;;1.10;;
33266;SDS011;19638;49.080;11.896;2023-03-14T12:17:34;1.20;;;1.00;;
33266;SDS011;19638;49.080;11.896;2023-03-14T12:21:47;0.82;;;0.82;;
33266;SDS011;19638;49.080;11.896;2023-03-14T12:26:13;1.27;;;1.20;;
33266;SDS011;19638;49.080;11.896;2023-03-14T12:30:26;0.90;;;0.90;;
33266;SDS011;19638;49.080;11.896;2023-03-14T12:34:32;1.95;;;1.20;;
33266;SDS011;19638;49.080;11.896;2023-03-14T12:43:03;1.02;;;1.00;;
33266;SDS011;19638;49.080;11.896;2023-03-14T12:51:54;1.15;;;1.15;;
33266;SDS011;19638;49.080;11.896;2023-03-14T12:56:04;1.75;;;0.90;;
33266;SDS011;19638;49.080;11.896;2023-03-14T13:00:21;1.42;;;1.20;;
33266;SDS011;19638;49.080;11.896;2023-03-14T13:04:31;1.35;;;1.25;;
33266;SDS011;19638;49.080;11.896;2023-03-14T13:08:41;2.92;;;1.23;;
33266;SDS011;19638;49.080;11.896;2023-03-14T13:12:51;1.30;;;1.30;;
33266;SDS011;19638;49.080;11.896;2023-03-14T13:16:58;2.15;;;1.40;;
33266;SDS011;19638;49.080;11.896;2023-03-14T13:21:20;2.45;;;1.27;;
33266;SDS011;19638;49.080;11.896;2023-03-14T13:25:28;0.90;;;0.90;;
33266;SDS011;19638;49.080;11.896;2023-03-14T13:29:34;1.85;;;1.05;;
33266;SDS011;19638;49.080;11.896;2023-03-14T13:33:38;1.10;;;0.98;;
33266;SDS011;19638;49.080;11.896;2023-03-14T13:37:43;1.15;;;1.05;;
33266;SDS011;19638;49.080;11.896;2023-03-14T13:41:46;1.02;;;1.02;;
33266;SDS011;19638;49.080;11.896;2023-03-14T13:45:55;1.00;;;1.00;;
33266;SDS011;19638;49.080;11.896;2023-03-14T13:50:11;2.30;;;1.10;;
33266;SDS011;19638;49.080;11.896;2023-03-14T13:54:18;0.90;;;0.90;;
33266;SDS011;19638;49.080;11.896;2023-03-14T13:58:23;1.73;;;0.95;;
33266;SDS011;19638;49.080;11.896;2023-03-14T14:02:33;0.98;;;0.70;;
33266;SDS011;19638;49.080;11.896;2023-03-14T14:06:44;0.95;;;0.90;;
33266;SDS011;19638;49.080;11.896;2023-03-14T14:10:54;0.80;;;0.80;;
33266;SDS011;19638;49.080;11.896;2023-03-14T14:15:02;2.00;;;1.13;;
33266;SDS011;19638;49.080;11.896;2023-03-14T14:19:10;0.85;;;0.85;;
33266;SDS011;19638;49.080;11.896;2023-03-14T14:23:14;2.17;;;1.00;;
33266;SDS011;19638;49.080;11.896;2023-03-14T14:27:28;2.80;;;1.20;;
33266;SDS011;19638;49.080;11.896;2023-03-14T14:31:36;1.75;;;1.15;;
33266;SDS011;19638;49.080;11.896;2023-03-14T14:35:42;12.32;;;5.50;;
33266;SDS011;19638;49.080;11.896;2023-03-14T14:39:53;6.20;;;4.25;;
33266;SDS011;19638;49.080;11.896;2023-03-14T14:43:58;3.28;;;2.97;;
33266;SDS011;19638;49.080;11.896;2023-03-14T14:48:06;3.05;;;2.50;;
33266;SDS011;19638;49.080;11.896;2023-03-14T14:52:18;1.88;;;1.77;;
33266;SDS011;19638;49.080;11.896;2023-03-14T14:56:27;3.33;;;3.00;;
33266;SDS011;19638;49.080;11.896;2023-03-14T15:00:31;1.73;;;1.63;;
33266;SDS011;19638;49.080;11.896;2023-03-14T15:04:34;4.20;;;3.22;;
33266;SDS011;19638;49.080;11.896;2023-03-14T15:08:42;5.63;;;4.30;;
33266;SDS011;19638;49.080;11.896;2023-03-14T15:12:46;1.83;;;1.70;;
33266;SDS011;19638;49.080;11.896;2023-03-14T15:16:52;1.50;;;1.48;;
33266;SDS011;19638;49.080;11.896;2023-03-14T15:20:57;1.13;;;1.13;;
33266;SDS011;19638;49.080;11.896;2023-03-14T15:25:05;1.40;;;1.30;;
33266;SDS011;19638;49.080;11.896;2023-03-14T15:29:35;2.22;;;1.17;;
33266;SDS011;19638;49.080;11.896;2023-03-14T15:33:39;1.67;;;1.58;;
33266;SDS011;19638;49.080;11.896;2023-03-14T15:37:44;0.90;;;0.90;;
33266;SDS011;19638;49.080;11.896;2023-03-14T15:41:49;1.38;;;1.20;;
33266;SDS011;19638;49.080;11.896;2023-03-14T15:45:52;2.20;;;1.47;;
33266;SDS011;19638;49.080;11.896;2023-03-14T15:49:57;1.23;;;1.23;;
33266;SDS011;19638;49.080;11.896;2023-03-14T15:54:01;2.25;;;1.90;;
33266;SDS011;19638;49.080;11.896;2023-03-14T15:58:15;2.83;;;1.60;;
33266;SDS011;19638;49.080;11.896;2023-03-14T16:02:23;1.40;;;1.30;;
33266;SDS011;19638;49.080;11.896;2023-03-14T16:06:27;1.53;;;1.43;;
33266;SDS011;19638;49.080;11.896;2023-03-14T16:10:32;2.97;;;1.77;;
33266;SDS011;19638;49.080;11.896;2023-03-14T16:14:37;1.58;;;1.50;;
33266;SDS011;19638;49.080;11.896;2023-03-14T16:18:44;5.70;;;1.90;;
33266;SDS011;19638;49.080;11.896;2023-03-14T16:22:47;4.83;;;1.70;;
33266;SDS011;19638;49.080;11.896;2023-03-14T16:26:51;3.30;;;1.30;;
33266;SDS011;19638;49.080;11.896;2023-03-14T16:31:00;1.30;;;1.23;;
33266;SDS011;19638;49.080;11.896;2023-03-14T16:35:05;2.30;;;1.30;;
33266;SDS011;19638;49.080;11.896;2023-03-14T16:39:09;3.03;;;1.10;;
33266;SDS011;19638;49.080;11.896;2023-03-14T16:43:13;1.30;;;1.20;;
33266;SDS011;19638;49.080;11.896;2023-03-14T16:47:18;1.83;;;1.40;;
33266;SDS011;19638;49.080;11.896;2023-03-14T16:51:21;1.30;;;1.30;;
33266;SDS011;19638;49.080;11.896;2023-03-14T16:55:27;2.77;;;1.33;;
33266;SDS011;19638;49.080;11.896;2023-03-14T16:59:35;1.87;;;1.40;;
33266;SDS011;19638;49.080;11.896;2023-03-14T17:03:43;1.20;;;1.10;;
33266;SDS011;19638;49.080;11.896;2023-03-14T17:07:47;1.57;;;1.20;;
33266;SDS011;19638;49.080;11.896;2023-03-14T17:11:52;3.17;;;1.30;;
33266;SDS011;19638;49.080;11.896;2023-03-14T17:15:56;1.77;;;1.20;;
33266;SDS011;19638;49.080;11.896;2023-03-14T17:20:02;3.30;;;1.50;;
33266;SDS011;19638;49.080;11.896;2023-03-14T17:24:09;2.87;;;1.20;;
33266;SDS011;19638;49.080;11.896;2023-03-14T17:28:12;1.20;;;1.10;;
33266;SDS011;19638;49.080;11.896;2023-03-14T17:32:16;2.13;;;1.30;;
33266;SDS011;19638;49.080;11.896;2023-03-14T17:36:22;3.03;;;1.20;;
33266;SDS011;19638;49.080;11.896;2023-03-14T17:40:29;1.90;;;1.40;;
33266;SDS011;19638;49.080;11.896;2023-03-14T17:44:32;4.37;;;1.17;;
33266;SDS011;19638;49.080;11.896;2023-03-14T17:48:36;1.47;;;1.17;;
33266;SDS011;19638;49.080;11.896;2023-03-14T17:52:45;6.57;;;1.77;;
33266;SDS011;19638;49.080;11.896;2023-03-14T17:56:50;1.27;;;1.17;;
33266;SDS011;19638;49.080;11.896;2023-03-14T18:00:53;3.13;;;1.30;;
33266;SDS011;19638;49.080;11.896;2023-03-14T18:04:57;1.63;;;1.17;;
33266;SDS011;19638;49.080;11.896;2023-03-14T18:09:01;9.50;;;3.50;;
33266;SDS011;19638;49.080;11.896;2023-03-14T18:13:09;6.77;;;3.17;;
33266;SDS011;19638;49.080;11.896;2023-03-14T18:17:14;1.93;;;1.23;;
33266;SDS011;19638;49.080;11.896;2023-03-14T18:21:17;1.30;;;1.20;;
33266;SDS011;19638;49.080;11.896;2023-03-14T18:25:23;4.13;;;1.60;;
33266;SDS011;19638;49.080;11.896;2023-03-14T18:29:26;5.60;;;1.40;;
33266;SDS011;19638;49.080;11.896;2023-03-14T18:33:33;2.43;;;1.27;;
33266;SDS011;19638;49.080;11.896;2023-03-14T18:37:42;5.20;;;1.27;;
33266;SDS011;19638;49.080;11.896;2023-03-14T18:41:47;1.20;;;1.10;;
33266;SDS011;19638;49.080;11.896;2023-03-14T18:45:51;1.63;;;1.40;;
33266;SDS011;19638;49.080;11.896;2023-03-14T18:49:56;3.20;;;1.30;;
33266;SDS011;19638;49.080;11.896;2023-03-14T18:53:59;1.30;;;1.20;;
33266;SDS011;19638;49.080;11.896;2023-03-14T18:58:11;1.40;;;1.30;;
33266;SDS011;19638;49.080;11.896;2023-03-14T19:02:14;3.60;;;1.50;;
33266;SDS011;19638;49.080;11.896;2023-03-14T19:06:18;2.97;;;1.30;;
33266;SDS011;19638;49.080;11.896;2023-03-14T19:10:21;1.40;;;1.30;;
33266;SDS011;19638;49.080;11.896;2023-03-14T19:14:27;1.40;;;1.30;;
33266;SDS011;19638;49.080;11.896;2023-03-14T19:18:30;3.57;;;2.10;;
33266;SDS011;19638;49.080;11.896;2023-03-14T19:22:35;7.00;;;1.77;;
33266;SDS011;19638;49.080;11.896;2023-03-14T19:26:38;1.43;;;1.30;;
33266;SDS011;19638;49.080;11.896;2023-03-14T19:30:42;1.40;;;1.30;;
33266;SDS011;19638;49.080;11.896;2023-03-14T19:34:48;2.10;;;1.30;;
33266;SDS011;19638;49.080;11.896;2023-03-14T19:38:53;1.77;;;1.67;;
33266;SDS011;19638;49.080;11.896;2023-03-14T19:42:56;3.37;;;2.13;;
33266;SDS011;19638;49.080;11.896;2023-03-14T19:47:04;2.13;;;1.40;;
33266;SDS011;19638;49.080;11.896;2023-03-14T19:51:08;4.10;;;1.57;;
33266;SDS011;19638;49.080;11.896;2023-03-14T19:55:11;6.97;;;1.73;;
33266;SDS011;19638;49.080;11.896;2023-03-14T19:59:16;4.07;;;1.43;;
33266;SDS011;19638;49.080;11.896;2023-03-14T20:03:23;4.53;;;1.60;;
33266;SDS011;19638;49.080;11.896;2023-03-14T20:07:28;4.37;;;1.60;;
33266;SDS011;19638;49.080;11.896;2023-03-14T20:11:42;1.53;;;1.43;;
33266;SDS011;19638;49.080;11.896;2023-03-14T20:15:45;5.07;;;1.60;;
33266;SDS011;19638;49.080;11.896;2023-03-14T20:19:54;1.83;;;1.40;;
33266;SDS011;19638;49.080;11.896;2023-03-14T20:24:07;3.10;;;1.50;;
33266;SDS011;19638;49.080;11.896;2023-03-14T20:28:10;1.93;;;1.57;;
33266;SDS011;19638;49.080;11.896;2023-03-14T20:32:13;2.80;;;1.43;;
33266;SDS011;19638;49.080;11.896;2023-03-14T20:36:20;4.10;;;1.43;;
33266;SDS011;19638;49.080;11.896;2023-03-14T20:40:29;2.40;;;1.67;;
33266;SDS011;19638;49.080;11.896;2023-03-14T20:44:35;4.23;;;2.13;;
33266;SDS011;19638;49.080;11.896;2023-03-14T20:48:43;5.63;;;1.90;;
33266;SDS011;19638;49.080;11.896;2023-03-14T20:52:51;4.03;;;1.40;;
33266;SDS011;19638;49.080;11.896;2023-03-14T20:56:56;3.03;;;1.70;;
33266;SDS011;19638;49.080;11.896;2023-03-14T21:01:01;4.43;;;1.60;;
33266;SDS011;19638;49.080;11.896;2023-03-14T21:05:05;4.90;;;1.50;;
33266;SDS011;19638;49.080;11.896;2023-03-14T21:09:14;3.87;;;1.50;;
33266;SDS011;19638;49.080;11.896;2023-03-14T21:13:20;4.63;;;1.77;;
33266;SDS011;19638;49.080;11.896;2023-03-14T21:17:24;3.80;;;1.60;;
33266;SDS011;19638;49.080;11.896;2023-03-14T21:21:27;4.20;;;1.50;;
33266;SDS011;19638;49.080;11.896;2023-03-14T21:25:34;5.37;;;1.80;;
33266;SDS011;19638;49.080;11.896;2023-03-14T21:29:40;15.30;;;2.30;;
33266;SDS011;19638;49.080;11.896;2023-03-14T21:33:45;4.77;;;1.90;;
33266;SDS011;19638;49.080;11.896;2023-03-14T21:37:49;4.70;;;1.63;;
33266;SDS011;19638;49.080;11.896;2023-03-14T21:41:57;4.37;;;1.53;;
33266;SDS011;19638;49.080;11.896;2023-03-14T21:46:01;3.67;;;1.67;;
33266;SDS011;19638;49.080;11.896;2023-03-14T21:50:08;4.73;;;2.17;;
33266;SDS011;19638;49.080;11.896;2023-03-14T21:54:15;5.43;;;1.93;;
33266;SDS011;19638;49.080;11.896;2023-03-14T21:58:20;4.93;;;1.67;;
33266;SDS011;19638;49.080;11.896;2023-03-14T22:02:28;4.73;;;2.00;;
33266;SDS011;19638;49.080;11.896;2023-03-14T22:06:32;4.10;;;2.33;;
33266;SDS011;19638;49.080;11.896;2023-03-14T22:10:41;5.30;;;2.00;;
33266;SDS011;19638;49.080;11.896;2023-03-14T22:14:47;6.17;;;1.80;;
33266;SDS011;19638;49.080;11.896;2023-03-14T22:18:50;3.83;;;1.87;;
33266;SDS011;19638;49.080;11.896;2023-03-14T22:22:53;5.70;;;1.80;;
33266;SDS011;19638;49.080;11.896;2023-03-14T22:26:59;6.60;;;1.83;;
33266;SDS011;19638;49.080;11.896;2023-03-14T22:31:04;5.63;;;1.57;;
33266;SDS011;19638;49.080;11.896;2023-03-14T22:35:08;4.83;;;1.80;;
33266;SDS011;19638;49.080;11.896;2023-03-14T22:39:15;2.80;;;1.67;;
33266;SDS011;19638;49.080;11.896;2023-03-14T22:43:21;4.57;;;1.70;;
33266;SDS011;19638;49.080;11.896;2023-03-14T22:47:26;5.20;;;1.70;;
33266;SDS011;19638;49.080;11.896;2023-03-14T22:51:29;5.43;;;2.20;;
33266;SDS011;19638;49.080;11.896;2023-03-14T22:55:32;2.33;;;2.10;;
33266;SDS011;19638;49.080;11.896;2023-03-14T22:59:37;6.80;;;2.20;;
33266;SDS011;19638;49.080;11.896;2023-03-14T23:03:42;4.87;;;1.83;;
33266;SDS011;19638;49.080;11.896;2023-03-14T23:07:45;2.07;;;1.77;;
33266;SDS011;19638;49.080;11.896;2023-03-14T23:11:51;3.87;;;1.67;;
33266;SDS011;19638;49.080;11.896;2023-03-14T23:15:54;1.63;;;1.53;;
33266;SDS011;19638;49.080;11.896;2023-03-14T23:19:58;1.40;;;1.40;;
33266;SDS011;19638;49.080;11.896;2023-03-14T23:24:01;2.67;;;1.40;;
33266;SDS011;19638;49.080;11.896;2023-03-14T23:28:08;1.40;;;1.30;;
33266;SDS011;19638;49.080;11.896;2023-03-14T23:32:11;1.50;;;1.40;;
33266;SDS011;19638;49.080;11.896;2023-03-14T23:36:17;1.70;;;1.60;;
33266;SDS011;19638;49.080;11.896;2023-03-14T23:40:22;2.13;;;1.90;;
33266;SDS011;19638;49.080;11.896;2023-03-14T23:44:27;2.23;;;1.77;;
33266;SDS011;19638;49.080;11.896;2023-03-14T23:48:33;2.43;;;2.13;;
33266;SDS011;19638;49.080;11.896;2023-03-14T23:52:37;3.00;;;2.70;;
33266;SDS011;19638;49.080;11.896;2023-03-14T23:56:42;2.40;;;2.20;;
